CYQM - Greater Moncton Roméo Le Blanc International Airport

Pirep is a free, collaborative database of all public and private airports located within the United States. All pilots are welcome to contribute, edit, and improve any airport they have local knowledge about, no registration required.
Are you familiar with this airport? Help out other pilots by adding your local knowledge.
Uploaded photos will be licensed under a CC BY-SA 4.0 license. Please only upload photos you have the rights to use.
Tags
Public
Undocu­mented
METAR / TAF
Edit Tags
Food
Camping
Lodging
Car Rental
Bicycles
Swimming
Golfing
Fishing
Hot Springs
Museum
Flying Clubs
Airpark
Upcoming Events
No upcoming events. Is anything happening here soon?
*
*
*

Where exactly on/near the airport is this event taking place?

Is there a webpage with more information for this event?

Who should be contacted for more information?

What is this event all about?

Repeat every
Description
Transient Parking
Fuel Location
Landing & Tie-down Fees
Crew Car Availability
Flying Clubs
WiFi Access
Airport Statistics
Location: Moncton, New Brunswick
Elevation: 232ft
Runway 06/24: 10,001ft
Runway 11/29: 8,000ft
Warning: This airport was imported from a non-authoritative source. It's public/private status may not be accurate.
Access: Open to the public
Current Weather — VFR
  • Weather data is strictly informational and not for flight planning purposes.
  • METAR
    2024-06-17 22:00:00 ADT
    Ceiling Wind Temperature Dewpoint Weather Visbility
    13,000ft 230° @ 9kt 62°F 51°F N/A 15SM
    Clouds: Few @ 4,700ft, Broken @ 13,000ft, Broken @ 17,000ft
    Raw: CYQM 180100Z 23009KT 15SM FEW047 BKN130 BKN170 17/11 A3013 RMK SC1AC5AC1 SLP206
  • TAF
    2024-06-17 21:00:00 ADT – 2024-06-18 05:00:00 ADT
    Ceiling Wind Weather Visbility
    10,000ft 230° @ 10kt N/A 6SM
    Clouds: Broken @ 10,000ft
    Raw: TAF CYQM 172340Z 1800/1824 23010KT P6SM BKN100 FM180800 21008KT P6SM BKN015 BKN050 FM181400 22012KT P6SM SCT040 RMK NXT FCST BY 180600Z
  • TAF
    2024-06-18 05:00:00 ADT – 2024-06-18 11:00:00 ADT
    Ceiling Wind Weather Visbility
    1,500ft 210° @ 8kt N/A 6SM
    Clouds: Broken @ 1,500ft, Broken @ 5,000ft
    Raw: TAF CYQM 172340Z 1800/1824 23010KT P6SM BKN100 FM180800 21008KT P6SM BKN015 BKN050 FM181400 22012KT P6SM SCT040 RMK NXT FCST BY 180600Z
  • TAF
    2024-06-18 11:00:00 ADT – 2024-06-18 21:00:00 ADT
    Ceiling Wind Weather Visbility
    Sky clear 220° @ 12kt N/A 6SM
    Clouds: Scattered @ 4,000ft
    Raw: TAF CYQM 172340Z 1800/1824 23010KT P6SM BKN100 FM180800 21008KT P6SM BKN015 BKN050 FM181400 22012KT P6SM SCT040 RMK NXT FCST BY 180600Z
Click/tap to add an annotation marker to the map
Airport Webcams
No webcams added yet.
Direct links to live image URLs will be displayed inline on this page. URLs to separate webpages will be linked to.
URL:
Direct links to live image URLs will be displayed inline on this page. URLs to separate webpages will be linked to.
URL:
Comments
Leave a comment What was your experience like at this airport?